Airfield :
LOGIN :

Register | Disclaimer

   EN    FR    IT 

 










Legend :    VFR   Marginal VFR   IFR   Intensive IFR   Very Intensive IFR
Visi :
Ceiling :
>= 8 km
>= 3000ft
5 to 8 km
1000 to 3000 ft
1500m to 5 km
500 to 1000 ft
800 to 1500m
200 to 500 ft
< 800m
< 200 ft
Symbols :   Thunderstorms  Fog  Heavy snow  Heavy precipitations  Wind > 20 kt
SIGMETs :     Misc.  Thunderstorms  Icing  Turbulence  Mountain Waves  Volcanic Ashes






- Airport Elevation : 325 ft


LPCS - Cascais

CURRENT METAR :
  • 261400Z 20009KT 180V240 9999 SCT020 15/10 Q1024

EXPIRED METARs :
  • 261330Z 20008KT 180V240 9999 SCT018 15/11 Q1024
  • 261300Z 23007KT 200V260 9999 SCT020 15/11 Q1025
  • 261230Z 22007KT 180V250 9999 FEW020 16/11 Q1025
  • 261200Z 22007KT 9999 FEW020 15/10 Q1025
  • 261130Z 19005KT 140V230 9999 FEW020 15/11 Q1025

TAF TAF LPCS
Valid from the 26 at 12:00 until the 26 at 21:00 UTC


261100Z 2612/2621 VRB02KT 9999 SCT016
BECMG 2612/2614 23008KT SCT030
BECMG 2618/2621 19005KT SCT015 BKN030



MET'MAP, your aeronautical weather chart ! - Copyright ORBIFLY December 2007 - Disclaimer

ORBIFLY MET'MAP TEAM :

Programming & Development : Alexandra Zaïnal
Concept & original design : Baudouin d'Aumeries
Assistance for programming : Marc-Olivier Méhu
Technical & hardware support : Manuel Goepfert

Contact : metmap@orbifly.com




SOURCES & CREDITS :

   NOAA